Time;durP1;ratioP1;P1;durP2;ratioP2;P2;SDS_P1;SDS_P2;PMS_P1;PMS_P2;Temp;Humidity;BMP_temperature;BMP_pressure;BME280_temperature;BME280_humidity;BME280_pressure;Samples;Min_cycle;Max_cycle;Signal;HPM_P1;HPM_P2
2022/06/10 04:00:52;;;;;;;6.63;5.13;;;13.20;99.90;;;;;;5855718;23;20527;-67
2022/06/10 04:03:18;;;;;;;4.97;4.50;;;13.10;99.90;;;;;;5017145;28;20449;-66
2022/06/10 04:05:45;;;;;;;5.07;4.63;;;13.20;99.90;;;;;;5016562;28;20947;-65
2022/06/10 04:08:12;;;;;;;5.37;4.67;;;13.10;99.90;;;;;;5016751;28;20463;-65
2022/06/10 04:10:38;;;;;;;7.73;5.10;;;13.10;99.90;;;;;;5016241;28;20821;-65
2022/06/10 04:13:07;;;;;;;6.47;4.70;;;13.10;99.90;;;;;;5016629;28;20461;-66
2022/06/10 04:15:34;;;;;;;5.40;5.10;;;13.10;99.90;;;;;;5016591;28;20453;-65
2022/06/10 04:18:02;;;;;;;5.60;5.10;;;13.10;99.90;;;;;;5016632;28;20471;-66
2022/06/10 04:20:34;;;;;;;9.43;5.50;;;13.10;99.90;;;;;;5016412;28;20457;-65
2022/06/10 04:23:01;;;;;;;5.03;4.63;;;13.10;99.90;;;;;;5016210;28;20908;-66
2022/06/10 04:25:28;;;;;;;5.33;4.50;;;13.10;99.90;;;;;;5016437;28;20528;-66
2022/06/10 04:27:56;;;;;;;6.40;5.23;;;13.10;99.90;;;;;;5016331;28;20449;-66
2022/06/10 04:30:26;;;;;;;9.03;5.60;;;13.10;99.90;;;;;;5016331;28;20456;-64
2022/06/10 04:32:53;;;;;;;5.90;5.40;;;13.10;99.90;;;;;;5016651;28;20430;-66
2022/06/10 04:35:23;;;;;;;6.57;4.80;;;13.10;99.90;;;;;;5016164;28;20507;-66
2022/06/10 04:37:50;;;;;;;4.87;4.40;;;13.10;99.90;;;;;;5016050;28;20452;-65
2022/06/10 04:40:20;;;;;;;5.77;5.27;;;13.10;99.90;;;;;;5016123;28;20460;-65
2022/06/10 04:42:47;;;;;;;5.57;4.97;;;13.10;99.90;;;;;;5015971;28;20473;-65
2022/06/10 04:45:16;;;;;;;4.20;3.90;;;13.10;99.90;;;;;;5015734;28;20822;-66
2022/06/10 04:47:43;;;;;;;7.40;4.60;;;13.20;99.90;;;;;;5016082;28;20453;-67
2022/06/10 04:50:14;;;;;;;6.30;4.30;;;13.30;99.90;;;;;;5015839;28;20923;-67
2022/06/10 04:52:42;;;;;;;5.67;4.70;;;13.30;99.90;;;;;;5015674;28;20900;-67
2022/06/10 04:55:10;;;;;;;4.70;4.30;;;13.30;99.90;;;;;;5015586;28;20858;-67
2022/06/10 04:57:38;;;;;;;9.37;4.10;;;13.40;99.90;;;;;;5015398;28;20843;-67
2022/06/10 05:00:07;;;;;;;5.53;4.93;;;13.40;99.90;;;;;;5015404;28;20967;-66
2022/06/10 05:02:34;;;;;;;5.50;4.80;;;13.40;99.90;;;;;;5015269;28;20554;-67
2022/06/10 05:05:00;;;;;;;7.70;4.50;;;13.50;99.90;;;;;;5015665;28;20551;-66
2022/06/10 05:07:27;;;;;;;8.33;4.83;;;13.50;99.90;;;;;;5015479;28;20452;-66
2022/06/10 05:09:56;;;;;;;8.97;4.73;;;13.60;99.90;;;;;;5015352;28;20551;-67
2022/06/10 05:12:23;;;;;;;9.17;5.30;;;13.60;99.90;;;;;;5015329;28;20870;-67
2022/06/10 05:14:50;;;;;;;4.70;4.30;;;13.70;99.90;;;;;;5015140;28;20456;-67
2022/06/10 05:17:16;;;;;;;4.67;4.27;;;13.70;99.90;;;;;;5015297;28;20460;-66
2022/06/10 05:19:46;;;;;;;9.17;4.67;;;13.80;99.90;;;;;;5016775;28;20460;-65
2022/06/10 05:22:13;;;;;;;5.30;4.57;;;13.90;99.90;;;;;;5018358;28;20473;-65
2022/06/10 05:24:40;;;;;;;6.00;4.33;;;13.90;99.90;;;;;;5017641;28;20948;-64
2022/06/10 05:27:08;;;;;;;5.80;3.83;;;14.00;99.90;;;;;;5015890;28;20452;-65
2022/06/10 05:29:35;;;;;;;5.23;4.70;;;14.10;99.90;;;;;;5014900;28;20967;-64
2022/06/10 05:32:02;;;;;;;4.63;4.23;;;14.10;99.90;;;;;;5014756;28;20855;-65
2022/06/10 05:34:48;;;;;;;4.43;4.00;;;14.20;99.90;;;;;;5015376;28;20460;-64
2022/06/10 05:37:17;;;;;;;4.70;3.90;;;14.30;99.90;;;;;;5014962;28;20446;-66
2022/06/10 05:39:44;;;;;;;4.43;4.03;;;14.40;99.90;;;;;;5015277;28;20441;-68
2022/06/10 05:42:13;;;;;;;4.83;4.17;;;14.60;99.90;;;;;;5015128;28;20476;-66
2022/06/10 05:44:42;;;;;;;11.53;4.50;;;14.80;99.90;;;;;;5014536;28;20960;-67
2022/06/10 05:47:12;;;;;;;4.23;3.97;;;15.00;99.90;;;;;;5014196;28;20457;-67
2022/06/10 05:49:41;;;;;;;10.10;4.47;;;15.30;99.90;;;;;;5014682;28;20547;-67
2022/06/10 05:52:10;;;;;;;6.33;4.23;;;15.40;99.90;;;;;;5014511;28;20979;-67
2022/06/10 05:54:38;;;;;;;7.50;3.93;;;15.60;99.90;;;;;;5014378;28;20953;-67
2022/06/10 05:57:05;;;;;;;6.30;4.07;;;15.80;99.90;;;;;;5014868;28;20457;-67
2022/06/10 05:59:34;;;;;;;6.90;3.93;;;16.00;99.90;;;;;;5014963;28;20444;-67
2022/06/10 06:02:02;;;;;;;5.10;4.13;;;16.20;99.90;;;;;;5014416;28;20519;-66
2022/06/10 06:04:29;;;;;;;7.10;4.77;;;16.30;99.90;;;;;;5014239;28;20792;-66
2022/06/10 06:06:56;;;;;;;4.10;3.70;;;16.60;99.90;;;;;;5014667;28;20456;-67
2022/06/10 06:09:23;;;;;;;4.53;3.23;;;16.70;99.90;;;;;;5014821;28;20464;-66
2022/06/10 06:11:53;;;;;;;3.60;3.27;;;16.80;99.90;;;;;;5014406;28;20495;-67
2022/06/10 06:14:20;;;;;;;3.93;3.53;;;17.00;99.90;;;;;;5014691;28;20480;-67
2022/06/10 06:16:53;;;;;;;5.80;3.20;;;17.20;99.90;;;;;;5014673;28;20484;-67
2022/06/10 06:19:20;;;;;;;4.50;3.73;;;17.40;99.90;;;;;;5014277;28;20990;-67
2022/06/10 06:21:47;;;;;;;4.83;3.90;;;17.60;99.90;;;;;;5014216;28;20489;-67
2022/06/10 06:24:15;;;;;;;3.87;3.23;;;17.70;99.90;;;;;;5014313;28;20452;-67
2022/06/10 06:26:42;;;;;;;6.97;3.77;;;17.90;99.90;;;;;;5014559;28;20461;-66
2022/06/10 06:29:09;;;;;;;3.67;3.00;;;18.00;99.90;;;;;;5014929;28;20452;-67
2022/06/10 06:31:36;;;;;;;7.87;3.53;;;18.20;99.90;;;;;;5014395;28;20849;-67
2022/06/10 06:34:04;;;;;;;5.40;3.50;;;18.30;99.90;;;;;;5014175;28;20455;-67
2022/06/10 06:36:35;;;;;;;4.90;3.20;;;18.50;99.90;;;;;;5014200;28;20479;-67
2022/06/10 06:39:02;;;;;;;9.73;4.47;;;18.70;99.90;;;;;;5014239;28;20433;-67
2022/06/10 06:41:29;;;;;;;3.50;2.60;;;18.90;99.90;;;;;;5013998;28;20472;-67
2022/06/10 06:43:56;;;;;;;4.87;3.03;;;19.20;99.90;;;;;;5014060;28;20457;-68
2022/06/10 06:46:23;;;;;;;4.93;3.50;;;19.40;99.90;;;;;;5014099;28;20453;-67
2022/06/10 06:48:50;;;;;;;6.47;3.00;;;19.50;99.90;;;;;;5014072;28;20480;-68
2022/06/10 06:51:18;;;;;;;5.20;3.07;;;19.70;99.90;;;;;;5014455;28;20527;-67
2022/06/10 06:53:45;;;;;;;5.20;2.90;;;19.90;99.90;;;;;;5013891;28;20453;-67
2022/06/10 06:56:12;;;;;;;4.97;3.17;;;20.10;99.90;;;;;;5014078;28;20963;-66
2022/06/10 06:58:38;;;;;;;3.83;3.17;;;20.40;99.90;;;;;;5014208;28;20924;-67
2022/06/10 07:01:05;;;;;;;6.50;3.00;;;20.90;99.90;;;;;;5018250;28;20484;-66
2022/06/10 07:03:32;;;;;;;4.90;3.33;;;21.40;99.90;;;;;;5018033;28;20530;-67
2022/06/10 07:05:59;;;;;;;2.90;2.47;;;21.70;99.90;;;;;;5017704;28;20457;-67
2022/06/10 07:08:31;;;;;;;4.53;2.83;;;22.30;99.90;;;;;;5017923;28;20457;-67
2022/06/10 07:10:59;;;;;;;2.97;2.77;;;23.10;99.90;;;;;;5017474;28;21014;-67
2022/06/10 07:13:26;;;;;;;4.83;2.70;;;23.60;99.90;;;;;;5018095;28;20472;-68
2022/06/10 07:15:53;;;;;;;3.20;3.00;;;24.30;99.90;;;;;;5018483;28;20823;-68
2022/06/10 07:18:21;;;;;;;3.90;2.80;;;24.70;99.90;;;;;;5019389;28;20458;-68
2022/06/10 07:20:47;;;;;;;3.83;2.50;;;25.30;99.90;;;;;;5017831;28;20476;-67
2022/06/10 07:23:14;;;;;;;4.17;2.80;;;25.60;99.10;;;;;;5017852;28;20548;-67
2022/06/10 07:25:43;;;;;;;3.60;2.63;;;26.00;97.10;;;;;;5017377;28;20456;-68
2022/06/10 07:28:11;;;;;;;3.40;2.40;;;26.40;94.70;;;;;;5017335;28;20932;-68
2022/06/10 07:30:39;;;;;;;3.93;2.60;;;26.80;93.50;;;;;;5017485;28;20530;-69
2022/06/10 07:33:05;;;;;;;11.63;2.80;;;27.10;92.10;;;;;;5017509;28;20503;-68
2022/06/10 07:35:33;;;;;;;6.10;2.17;;;27.30;92.10;;;;;;5017487;28;20457;-68
2022/06/10 07:38:00;;;;;;;3.47;2.40;;;27.50;90.20;;;;;;5017195;28;20846;-68
2022/06/10 07:43:16;;;;;;;2.90;2.40;;;28.10;87.30;;;;;;5017375;28;20547;-68
2022/06/10 07:45:43;;;;;;;3.93;2.90;;;28.30;85.90;;;;;;5017367;28;20453;-68
2022/06/10 07:48:11;;;;;;;4.77;3.00;;;28.60;85.60;;;;;;5017281;28;20453;-68
2022/06/10 07:50:38;;;;;;;7.00;3.60;;;28.70;83.70;;;;;;5017158;28;20563;-67
2022/06/10 07:53:05;;;;;;;4.80;2.90;;;28.60;81.90;;;;;;5016865;28;20935;-68
2022/06/10 07:55:32;;;;;;;5.83;3.63;;;28.60;84.50;;;;;;5017060;28;20457;-68
2022/06/10 07:57:58;;;;;;;3.23;2.70;;;28.70;85.10;;;;;;5016838;28;20456;-67
2022/06/10 08:00:27;;;;;;;3.53;3.23;;;29.00;80.30;;;;;;5016552;28;20455;-67
2022/06/10 08:02:54;;;;;;;3.20;2.10;;;28.70;82.00;;;;;;5016966;28;20465;-68
2022/06/10 08:05:21;;;;;;;7.70;3.17;;;28.90;81.70;;;;;;5016975;28;20456;-68
2022/06/10 08:07:50;;;;;;;4.40;2.77;;;28.50;80.40;;;;;;5017136;28;20452;-68
2022/06/10 08:10:21;;;;;;;4.90;2.50;;;28.50;81.20;;;;;;5015729;28;20940;-67
2022/06/10 08:12:48;;;;;;;2.67;2.13;;;28.60;83.10;;;;;;5016395;28;20439;-68
2022/06/10 08:15:16;;;;;;;6.33;3.00;;;28.70;78.10;;;;;;5016568;28;20452;-68
2022/06/10 08:17:44;;;;;;;3.73;3.10;;;28.90;76.70;;;;;;5016686;28;20464;-68
2022/06/10 08:20:19;;;;;;;8.47;3.40;;;29.00;75.60;;;;;;5016626;28;20457;-68
2022/06/10 08:22:45;;;;;;;3.10;2.63;;;29.30;76.60;;;;;;5016999;28;20460;-66
2022/06/10 08:25:14;;;;;;;4.10;3.53;;;29.40;76.20;;;;;;5016632;28;20452;-67
2022/06/10 08:27:41;;;;;;;5.80;2.83;;;29.60;71.90;;;;;;5016466;28;20194;-67
2022/06/10 08:30:14;;;;;;;5.67;2.67;;;29.70;71.80;;;;;;5016802;28;20966;-68
2022/06/10 08:32:41;;;;;;;5.17;3.00;;;30.10;72.00;;;;;;5016389;28;20433;-67
2022/06/10 08:35:10;;;;;;;6.77;2.90;;;30.10;70.00;;;;;;5016516;28;20456;-67
2022/06/10 08:37:36;;;;;;;4.20;3.40;;;29.50;71.40;;;;;;5016529;28;20507;-67
2022/06/10 08:40:04;;;;;;;4.50;3.20;;;29.60;71.10;;;;;;5015834;28;21005;-67
2022/06/10 08:42:39;;;;;;;3.50;3.03;;;29.90;69.20;;;;;;5016026;28;20504;-68
2022/06/10 08:45:18;;;;;;;4.37;3.00;;;29.80;70.20;;;;;;5016655;28;20464;-68
2022/06/10 08:47:58;;;;;;;4.90;2.80;;;29.40;68.90;;;;;;5015743;28;20486;-68
2022/06/10 08:50:55;;;;;;;6.00;2.97;;;29.50;72.10;;;;;;5016207;28;20443;-67
2022/06/10 08:53:44;;;;;;;4.93;3.20;;;30.10;74.20;;;;;;5016045;28;20434;-67
2022/06/10 08:56:19;;;;;;;2.73;2.53;;;30.80;70.70;;;;;;5015856;28;20436;-68
2022/06/10 08:58:55;;;;;;;6.33;3.30;;;31.00;66.50;;;;;;5015948;28;20441;-68
2022/06/10 09:01:24;;;;;;;4.17;2.93;;;31.40;70.40;;;;;;5015538;28;20518;-68
2022/06/10 09:03:56;;;;;;;3.00;2.40;;;31.50;69.50;;;;;;5015456;28;21026;-68
2022/06/10 09:06:30;;;;;;;4.70;2.87;;;31.40;65.70;;;;;;5016511;28;20437;-68
2022/06/10 09:09:00;;;;;;;4.47;2.70;;;31.80;63.20;;;;;;5016011;28;20525;-68
2022/06/10 09:11:32;;;;;;;3.47;2.73;;;31.30;63.30;;;;;;5016207;28;20477;-67
2022/06/10 09:14:02;;;;;;;3.97;3.03;;;31.50;63.60;;;;;;5015741;28;20440;-67
2022/06/10 09:16:36;;;;;;;4.20;2.80;;;31.80;65.50;;;;;;5015529;28;20544;-68
2022/06/10 09:19:08;;;;;;;5.63;3.10;;;32.10;61.60;;;;;;5015684;28;20445;-67
2022/06/10 09:21:44;;;;;;;3.10;2.30;;;31.80;62.40;;;;;;5015197;28;20472;-67
2022/06/10 09:24:17;;;;;;;3.70;2.87;;;31.70;61.70;;;;;;5015729;28;20464;-67
2022/06/10 09:26:50;;;;;;;4.17;2.60;;;31.30;60.60;;;;;;5015564;28;20437;-67
2022/06/10 09:29:17;;;;;;;7.07;3.00;;;31.70;61.50;;;;;;5015264;28;20442;-67
2022/06/10 09:31:53;;;;;;;4.83;3.10;;;32.30;61.90;;;;;;5015380;28;20472;-67
2022/06/10 09:34:28;;;;;;;4.13;2.90;;;32.10;59.50;;;;;;5015437;28;20444;-68
2022/06/10 09:37:09;;;;;;;9.00;2.97;;;31.90;58.30;;;;;;5015447;28;20480;-68
2022/06/10 09:42:42;;;;;;;4.40;2.70;;;31.50;61.60;;;;;;5015143;28;20842;-68
2022/06/10 09:45:20;;;;;;;4.03;2.63;;;31.70;58.20;;;;;;5014837;28;20814;-67
2022/06/10 09:48:02;;;;;;;5.30;2.80;;;31.10;62.30;;;;;;5015213;28;20811;-68
2022/06/10 09:50:32;;;;;;;3.17;2.47;;;31.10;63.70;;;;;;5015433;28;20441;-68
2022/06/10 09:53:17;;;;;;;4.70;2.83;;;31.20;60.80;;;;;;5015285;28;20940;-68
2022/06/10 09:55:55;;;;;;;4.20;3.03;;;31.60;61.90;;;;;;5015568;28;20448;-68
2022/06/10 09:58:41;;;;;;;4.17;2.60;;;31.90;63.80;;;;;;5015140;28;20465;-68
2022/06/10 10:01:19;;;;;;;3.27;2.73;;;31.70;59.10;;;;;;5014688;28;20835;-67
2022/06/10 10:04:08;;;;;;;2.97;2.10;;;31.70;61.10;;;;;;5014720;28;20461;-67
2022/06/10 10:06:40;;;;;;;4.50;2.83;;;31.90;60.40;;;;;;5006036;28;20463;-67
2022/06/10 10:09:17;;;;;;;3.77;2.40;;;32.30;59.60;;;;;;5014547;28;20441;-67
2022/06/10 10:11:50;;;;;;;3.17;2.10;;;32.80;58.80;;;;;;5014488;28;20480;-67
2022/06/10 10:14:30;;;;;;;4.20;2.50;;;33.20;57.10;;;;;;5014651;28;20444;-67
2022/06/10 10:17:17;;;;;;;9.40;3.83;;;33.60;54.40;;;;;;5015185;28;20489;-67
2022/06/10 10:19:58;;;;;;;5.60;2.70;;;33.80;54.80;;;;;;5014718;28;20440;-68
2022/06/10 10:22:55;;;;;;;4.20;3.00;;;33.30;53.90;;;;;;5014040;28;20814;-67
2022/06/10 10:25:26;;;;;;;5.10;2.47;;;32.50;56.10;;;;;;5014253;28;20499;-67
2022/06/10 10:27:54;;;;;;;4.30;2.53;;;31.90;57.40;;;;;;5014304;28;20457;-68
2022/06/10 10:30:26;;;;;;;8.20;3.07;;;31.40;60.10;;;;;;5014048;28;20452;-67
2022/06/10 10:32:56;;;;;;;5.70;2.73;;;30.50;59.50;;;;;;5014065;28;20503;-67
2022/06/10 10:35:26;;;;;;;4.67;2.83;;;29.70;59.40;;;;;;5020471;28;20822;-67
2022/06/10 10:37:57;;;;;;;6.00;2.33;;;29.10;62.60;;;;;;5021129;28;20445;-68
2022/06/10 10:40:35;;;;;;;3.43;1.93;;;28.90;68.40;;;;;;5021288;28;20556;-67
2022/06/10 10:43:07;;;;;;;7.87;2.63;;;29.30;67.40;;;;;;5021334;28;20465;-68
2022/06/10 10:45:36;;;;;;;4.93;2.77;;;29.70;64.20;;;;;;5021308;28;20425;-68
2022/06/10 10:48:14;;;;;;;4.67;2.53;;;29.90;62.70;;;;;;5021113;28;20456;-68
2022/06/10 10:50:52;;;;;;;3.37;2.47;;;30.30;63.20;;;;;;5021671;28;20472;-68
2022/06/10 10:53:24;;;;;;;3.90;2.50;;;30.80;60.80;;;;;;5021538;28;20441;-67
2022/06/10 10:55:55;;;;;;;5.93;3.10;;;31.20;58.80;;;;;;5021134;28;20444;-67
2022/06/10 10:58:27;;;;;;;4.13;2.20;;;31.40;59.50;;;;;;5020853;28;20456;-68
2022/06/10 11:00:58;;;;;;;3.60;2.13;;;31.70;58.20;;;;;;5020774;28;20480;-68
2022/06/10 11:03:27;;;;;;;4.67;2.03;;;31.60;60.80;;;;;;5020852;28;20464;-68
2022/06/10 11:05:55;;;;;;;3.70;2.63;;;32.00;59.10;;;;;;5020866;28;20464;-68
2022/06/10 11:08:28;;;;;;;3.80;2.40;;;32.40;57.20;;;;;;5020670;28;20463;-68
2022/06/10 11:11:02;;;;;;;5.27;2.83;;;32.40;57.50;;;;;;5020645;28;20472;-68
2022/06/10 11:13:42;;;;;;;3.70;2.40;;;32.80;53.40;;;;;;5020376;28;20942;-68
2022/06/10 11:16:36;;;;;;;3.90;2.17;;;32.80;54.90;;;;;;5020400;28;20468;-68
2022/06/10 11:19:21;;;;;;;6.10;2.60;;;32.50;53.30;;;;;;5019478;28;20484;-68
2022/06/10 11:21:51;;;;;;;4.23;2.27;;;32.20;52.20;;;;;;5018656;28;20488;-68
2022/06/10 11:24:19;;;;;;;3.90;2.10;;;31.90;54.30;;;;;;5020242;28;20480;-68
2022/06/10 11:26:53;;;;;;;5.53;2.10;;;31.30;55.40;;;;;;5020311;28;20452;-68
2022/06/10 11:29:20;;;;;;;7.63;2.33;;;30.50;57.40;;;;;;5020375;28;20486;-68
2022/06/10 11:31:50;;;;;;;2.70;2.30;;;30.20;58.50;;;;;;5020189;28;20472;-68
2022/06/10 11:34:20;;;;;;;3.00;2.07;;;30.10;58.00;;;;;;5020459;28;20453;-68
2022/06/10 11:36:49;;;;;;;5.10;2.47;;;30.10;56.80;;;;;;5020471;28;20802;-68
2022/06/10 11:39:19;;;;;;;4.83;2.73;;;29.70;59.00;;;;;;5020753;28;20504;-69
2022/06/10 11:42:07;;;;;;;6.80;2.50;;;29.70;59.60;;;;;;5020604;28;20475;-67
2022/06/10 11:44:38;;;;;;;5.30;2.17;;;29.40;55.40;;;;;;5020342;28;20471;-68
2022/06/10 11:47:12;;;;;;;3.53;2.10;;;28.90;55.30;;;;;;5017135;28;20939;-67
2022/06/10 11:49:45;;;;;;;4.00;2.00;;;28.60;56.50;;;;;;5017385;28;20433;-67
2022/06/10 11:52:18;;;;;;;4.47;2.03;;;28.60;56.90;;;;;;5017362;28;20847;-68
2022/06/10 11:54:51;;;;;;;2.93;2.30;;;28.40;57.10;;;;;;5017130;28;20908;-67
2022/06/10 12:00:18;;;;;;;4.60;2.30;;;28.50;62.00;;;;;;5016586;28;20473;-67
2022/06/10 12:02:51;;;;;;;3.10;1.93;;;28.70;59.70;;;;;;5016864;28;20432;-68
2022/06/10 12:05:37;;;;;;;3.30;2.37;;;28.70;58.70;;;;;;5016836;28;20471;-68
2022/06/10 12:08:12;;;;;;;5.63;2.83;;;28.60;59.60;;;;;;5016756;28;20774;-68
2022/06/10 12:10:46;;;;;;;3.67;2.20;;;28.70;61.10;;;;;;5016556;28;20508;-68
2022/06/10 12:13:15;;;;;;;5.23;2.13;;;28.90;59.80;;;;;;5016959;28;20491;-68
2022/06/10 12:15:49;;;;;;;6.90;2.63;;;29.00;63.00;;;;;;5016917;28;20484;-68
2022/06/10 12:18:17;;;;;;;4.13;2.10;;;29.00;58.10;;;;;;5017113;28;20507;-68
2022/06/10 12:20:48;;;;;;;3.40;2.40;;;29.10;57.00;;;;;;5016215;28;20505;-68
2022/06/10 12:23:18;;;;;;;2.20;2.00;;;29.10;62.30;;;;;;5016406;28;20909;-68
2022/06/10 12:25:54;;;;;;;3.37;2.17;;;29.30;58.60;;;;;;5016421;28;20457;-68
2022/06/10 12:28:31;;;;;;;4.03;2.03;;;29.30;60.20;;;;;;5017235;28;20447;-67
2022/06/10 12:31:08;;;;;;;3.50;2.50;;;29.30;58.70;;;;;;5019204;28;20469;-68
2022/06/10 12:33:44;;;;;;;3.10;1.90;;;29.00;58.60;;;;;;5015768;28;20916;-70
2022/06/10 12:36:16;;;;;;;2.70;1.90;;;29.10;59.50;;;;;;5016217;28;20441;-69
2022/06/10 12:38:44;;;;;;;4.43;2.00;;;28.70;59.80;;;;;;5017680;28;20441;-68
2022/06/10 12:41:16;;;;;;;2.97;2.60;;;28.90;57.90;;;;;;5018985;28;20870;-69
2022/06/10 12:43:48;;;;;;;4.30;2.27;;;29.00;56.70;;;;;;5017226;28;20496;-68
2022/06/10 12:46:36;;;;;;;3.77;2.40;;;28.90;59.00;;;;;;5016567;28;20441;-69
2022/06/10 12:49:09;;;;;;;2.87;2.27;;;28.80;57.40;;;;;;5015923;28;20536;-70
2022/06/10 12:51:40;;;;;;;4.87;2.07;;;28.60;60.80;;;;;;5016358;28;20496;-69
2022/06/10 12:54:20;;;;;;;4.83;2.43;;;28.40;59.70;;;;;;5015830;28;20444;-67
2022/06/10 12:56:47;;;;;;;3.77;1.90;;;28.00;59.10;;;;;;5015689;28;20466;-68
2022/06/10 12:59:24;;;;;;;3.00;2.30;;;27.60;59.50;;;;;;5015738;28;20457;-68
2022/06/10 13:01:53;;;;;;;5.90;2.43;;;27.30;57.00;;;;;;5015793;28;20520;-68
2022/06/10 13:05:02;;;;;;;4.67;2.40;;;26.90;57.20;;;;;;5015568;28;20840;-68
2022/06/10 13:07:37;;;;;;;1.93;1.70;;;26.80;60.20;;;;;;5005358;28;20951;-68
2022/06/10 13:10:40;;;;;;;2.47;1.60;;;27.00;58.70;;;;;;5015538;28;20916;-68
2022/06/10 13:13:13;;;;;;;4.27;1.97;;;27.00;59.10;;;;;;5016808;28;20433;-68
2022/06/10 13:15:43;;;;;;;3.83;1.87;;;27.10;61.10;;;;;;5015892;28;20503;-68
2022/06/10 13:18:29;;;;;;;2.43;2.00;;;27.20;58.30;;;;;;5015657;28;20958;-68
2022/06/10 13:20:57;;;;;;;2.60;2.33;;;27.20;58.80;;;;;;5015087;28;20485;-68
2022/06/10 13:23:25;;;;;;;2.47;1.83;;;27.00;57.80;;;;;;5015053;28;20487;-68
2022/06/10 13:26:10;;;;;;;2.30;1.80;;;26.90;60.20;;;;;;5015525;28;20449;-68
2022/06/10 13:28:39;;;;;;;3.40;2.03;;;26.80;58.70;;;;;;5015988;28;20445;-68
2022/06/10 13:31:16;;;;;;;1.97;1.80;;;27.00;60.00;;;;;;5015543;28;20476;-68
2022/06/10 13:33:57;;;;;;;4.23;1.60;;;27.20;60.00;;;;;;5015909;28;20537;-68
2022/06/10 13:36:25;;;;;;;3.57;1.77;;;27.40;63.60;;;;;;5015651;28;20447;-67
2022/06/10 13:38:54;;;;;;;2.77;2.07;;;27.70;58.70;;;;;;5015903;28;20453;-68
2022/06/10 13:44:31;;;;;;;4.23;2.23;;;27.50;58.30;;;;;;5015390;28;20456;-68
2022/06/10 13:47:01;;;;;;;5.90;2.17;;;27.50;60.00;;;;;;5014210;28;20541;-68
2022/06/10 13:49:46;;;;;;;4.50;2.00;;;27.70;60.90;;;;;;5015258;28;20936;-68
2022/06/10 13:52:25;;;;;;;2.70;2.23;;;28.10;62.90;;;;;;5015249;28;20479;-67
2022/06/10 13:54:52;;;;;;;3.27;2.33;;;28.40;59.20;;;;;;5015294;28;20469;-68
2022/06/10 13:57:21;;;;;;;3.73;1.87;;;28.60;57.40;;;;;;5015190;28;20453;-68
2022/06/10 13:59:58;;;;;;;5.63;1.90;;;28.60;56.00;;;;;;5014770;28;20963;-68
2022/06/10 14:02:29;;;;;;;3.90;2.00;;;28.30;55.60;;;;;;5014503;28;20487;-68
2022/06/10 14:04:57;;;;;;;2.70;2.13;;;28.10;55.80;;;;;;5014799;28;20465;-68
2022/06/10 14:07:27;;;;;;;3.83;1.93;;;27.80;56.60;;;;;;5014913;28;20871;-68
2022/06/10 14:09:56;;;;;;;4.50;2.33;;;27.60;58.10;;;;;;5013936;28;20452;-68
2022/06/10 14:12:25;;;;;;;3.20;1.80;;;27.40;56.70;;;;;;5014586;28;20484;-68
2022/06/10 14:14:53;;;;;;;1.90;1.63;;;27.10;56.40;;;;;;5014611;28;20452;-68
2022/06/10 14:17:22;;;;;;;2.53;2.10;;;26.90;56.90;;;;;;5014644;28;20480;-68
2022/06/10 14:19:52;;;;;;;3.50;2.00;;;26.70;58.30;;;;;;5014652;28;20449;-68
2022/06/10 14:22:22;;;;;;;5.07;2.80;;;26.40;59.30;;;;;;5015129;28;20469;-68
2022/06/10 14:25:17;;;;;;;3.60;1.90;;;26.30;63.10;;;;;;5014433;28;20477;-69
2022/06/10 14:27:45;;;;;;;3.40;2.00;;;26.60;65.60;;;;;;5013945;28;20913;-68
2022/06/10 14:30:16;;;;;;;1.93;1.80;;;26.80;63.20;;;;;;5014355;28;20449;-68
2022/06/10 14:32:52;;;;;;;2.23;1.70;;;27.20;58.40;;;;;;5014178;28;21012;-67
2022/06/10 14:35:34;;;;;;;3.30;1.60;;;27.50;59.10;;;;;;5014477;28;20456;-68
2022/06/10 14:38:04;;;;;;;5.13;1.97;;;27.70;60.60;;;;;;5015687;28;20445;-69
2022/06/10 14:40:32;;;;;;;4.80;1.70;;;27.90;63.50;;;;;;5014734;28;20453;-67
2022/06/10 14:43:07;;;;;;;3.70;2.20;;;28.00;56.90;;;;;;5014570;28;20461;-68
2022/06/10 14:45:37;;;;;;;3.47;1.87;;;28.20;56.30;;;;;;5014351;28;20511;-68
2022/06/10 14:48:16;;;;;;;3.17;1.73;;;28.20;56.50;;;;;;5014218;28;20440;-68
2022/06/10 14:51:05;;;;;;;2.43;1.87;;;28.20;56.80;;;;;;5014886;28;20483;-68
2022/06/10 14:53:32;;;;;;;2.30;1.40;;;28.10;58.20;;;;;;5013973;28;20492;-68
2022/06/10 14:56:00;;;;;;;3.50;1.50;;;27.90;56.00;;;;;;5013708;28;20856;-68
2022/06/10 14:58:26;;;;;;;3.83;2.00;;;27.50;55.80;;;;;;5014182;28;20597;-67
2022/06/10 15:00:53;;;;;;;3.90;1.87;;;27.20;57.80;;;;;;5013965;28;20877;-68
2022/06/10 15:03:22;;;;;;;1.80;1.70;;;27.00;61.00;;;;;;5013974;28;20453;-68
2022/06/10 15:08:41;;;;;;;2.10;1.70;;;27.10;60.50;;;;;;5014034;28;20508;-68
2022/06/10 15:11:10;;;;;;;2.70;1.90;;;27.10;60.40;;;;;;5013992;28;20484;-69
2022/06/10 15:13:39;;;;;;;3.63;2.20;;;27.10;58.60;;;;;;5014376;28;20821;-69
2022/06/10 15:16:07;;;;;;;2.70;2.00;;;26.90;59.30;;;;;;5014089;28;20971;-69
2022/06/10 15:18:34;;;;;;;2.80;2.00;;;26.50;60.00;;;;;;5014092;28;20453;-68
2022/06/10 15:21:05;;;;;;;1.90;1.60;;;26.40;60.10;;;;;;5016233;28;20475;-68
2022/06/10 15:23:33;;;;;;;4.27;1.70;;;26.50;60.00;;;;;;5017863;28;20859;-68
2022/06/10 15:25:59;;;;;;;2.07;1.70;;;26.60;60.70;;;;;;5017763;28;20485;-69
2022/06/10 15:28:28;;;;;;;3.53;1.70;;;26.80;59.30;;;;;;5017176;28;20955;-69
2022/06/10 15:30:57;;;;;;;6.10;1.90;;;26.90;60.20;;;;;;5017272;28;20500;-69
2022/06/10 15:33:24;;;;;;;14.17;3.00;;;27.10;58.90;;;;;;5017338;28;20958;-68
2022/06/10 15:41:26;;;;;;;3.10;1.50;;;27.20;55.70;;;;;;5006490;28;20810;-69
2022/06/10 15:43:54;;;;;;;2.63;1.70;;;27.00;55.70;;;;;;5017991;28;20899;-69
2022/06/10 15:46:23;;;;;;;2.50;1.50;;;26.70;54.80;;;;;;5017373;28;20560;-69
2022/06/10 15:48:51;;;;;;;3.17;1.70;;;26.50;55.00;;;;;;5017011;28;20821;-68
2022/06/10 15:51:24;;;;;;;2.90;1.93;;;26.30;55.00;;;;;;5017259;28;20479;-68
2022/06/10 15:53:55;;;;;;;2.20;2.00;;;26.20;55.70;;;;;;5017199;28;20531;-69
2022/06/10 15:59:13;;;;;;;2.77;1.37;;;26.30;56.60;;;;;;5013467;28;20444;-70
2022/06/10 16:01:40;;;;;;;4.10;1.70;;;26.50;57.60;;;;;;5016880;28;20480;-69
2022/06/10 16:04:06;;;;;;;1.93;1.50;;;26.70;56.50;;;;;;5017219;28;20499;-69
2022/06/10 16:06:34;;;;;;;4.43;1.90;;;26.80;54.30;;;;;;5016626;28;20940;-70
2022/06/10 16:09:02;;;;;;;1.40;1.30;;;26.90;55.70;;;;;;5016891;28;20487;-69
2022/06/10 16:11:29;;;;;;;2.90;1.50;;;27.00;56.70;;;;;;5016948;28;20477;-69
2022/06/10 16:13:56;;;;;;;1.43;1.33;;;27.00;54.00;;;;;;5017006;28;20452;-72
2022/06/10 16:16:26;;;;;;;4.20;1.60;;;26.80;54.00;;;;;;5016857;28;20456;-72
2022/06/10 16:18:54;;;;;;;2.67;1.60;;;26.70;54.10;;;;;;5017058;28;20456;-72
2022/06/10 16:21:22;;;;;;;2.40;1.57;;;26.70;54.30;;;;;;5016944;28;20523;-71
2022/06/10 16:23:50;;;;;;;2.43;1.90;;;26.50;55.00;;;;;;5016975;28;20452;-71
2022/06/10 16:26:24;;;;;;;2.20;1.30;;;26.40;56.80;;;;;;5016433;28;21009;-71
2022/06/10 16:28:53;;;;;;;3.13;1.50;;;26.40;57.90;;;;;;5017046;28;20441;-71
2022/06/10 16:31:23;;;;;;;1.60;1.50;;;26.50;57.90;;;;;;5016185;28;20480;-71
2022/06/10 16:33:50;;;;;;;2.73;1.70;;;26.50;57.60;;;;;;5016785;28;20456;-71
2022/06/10 16:36:18;;;;;;;4.20;1.73;;;26.50;58.20;;;;;;5016617;28;20448;-70
2022/06/10 16:38:45;;;;;;;2.13;1.43;;;26.60;57.30;;;;;;5016655;28;20460;-71
2022/06/10 16:41:24;;;;;;;1.67;1.57;;;26.70;57.80;;;;;;5016537;28;20476;-71
2022/06/10 16:43:52;;;;;;;1.40;1.30;;;26.80;57.60;;;;;;5016783;28;20441;-71
2022/06/10 16:46:23;;;;;;;2.83;1.50;;;26.90;54.80;;;;;;5016291;28;20480;-71
2022/06/10 16:48:49;;;;;;;2.53;1.60;;;27.00;54.80;;;;;;5016115;28;20441;-71
2022/06/10 16:51:17;;;;;;;2.27;1.70;;;26.90;54.40;;;;;;5016647;28;20479;-71
2022/06/10 16:53:45;;;;;;;2.47;1.40;;;26.80;55.10;;;;;;5016729;28;20459;-71
2022/06/10 16:56:15;;;;;;;1.40;1.30;;;26.80;55.00;;;;;;5016242;28;20453;-71
2022/06/10 16:58:46;;;;;;;2.97;1.37;;;26.70;54.70;;;;;;5016472;28;20441;-72
2022/06/10 17:01:18;;;;;;;2.73;1.50;;;26.60;54.30;;;;;;5015987;28;20491;-71
2022/06/10 17:03:45;;;;;;;2.53;1.40;;;26.50;55.00;;;;;;5017106;28;20448;-71
2022/06/10 17:06:14;;;;;;;2.77;1.60;;;26.40;55.00;;;;;;5016441;28;20480;-70
2022/06/10 17:08:41;;;;;;;2.20;1.60;;;26.30;55.20;;;;;;5016507;28;20456;-71
2022/06/10 17:11:17;;;;;;;2.93;2.30;;;26.30;56.10;;;;;;5015886;28;20473;-71
2022/06/10 17:13:47;;;;;;;1.53;1.43;;;26.30;57.50;;;;;;5015810;28;20441;-71
2022/06/10 17:16:18;;;;;;;4.50;1.40;;;26.20;56.90;;;;;;5016082;28;20453;-72
2022/06/10 17:18:46;;;;;;;5.60;1.43;;;26.20;57.50;;;;;;5015927;28;20473;-72
2022/06/10 17:21:13;;;;;;;10.43;4.80;;;26.20;56.70;;;;;;5017573;28;20477;-72
2022/06/10 17:23:41;;;;;;;1.97;1.87;;;26.10;56.50;;;;;;5031824;28;20453;-72
2022/06/10 17:26:15;;;;;;;6.60;6.20;;;26.10;56.80;;;;;;5027251;28;20483;-72
2022/06/10 17:28:45;;;;;;;2.67;2.30;;;25.90;57.50;;;;;;5022397;28;20464;-71